CheckWX is a tool to help pilots better visualize weather data.  It is not intended as a substitute for an official pre-flight weather briefing.

15:47:46 UTC

TKPN TAF
Vance W. Amory International Airport
Charlestown, Antigua and Barbuda
TAF TKPN 261100Z 2612/2712 11007KT 9999 SCT020 PROB30 TEMPO 2612/2622 SHRA

Jan-26@
12:00 UTC

Jan-26 @ 12:00 UTC

Jan-27@
12:00 UTC

Jan-27 @ 12:00 UTC

TAF TKPN 261100Z 2612/2712 11007KT 9999 SCT020
Wind
  • 110° at 7 KTS
Cloud Levels
  • Scattered at 2,000' AGL

Jan-26@
12:00 UTC

Jan-26 @ 12:00 UTC

Jan-26@
22:00 UTC

Jan-26 @ 22:00 UTC

PROB30 TEMPO 2612/2622 SHRA

Temporary - 30% Likelihood

Temporary - 30% Likelihood during this time.

Conditions
Rain